createdAt,value
2022-07-27T00:02:22.241Z,22.70
2022-07-27T00:05:25.499Z,22.70
2022-07-27T00:08:28.734Z,22.60
2022-07-27T00:11:33.053Z,22.60
2022-07-27T00:14:36.061Z,22.50
2022-07-27T00:17:38.939Z,22.50
2022-07-27T00:20:41.993Z,22.40
2022-07-27T00:23:44.951Z,22.40
2022-07-27T00:26:49.210Z,22.50
2022-07-27T00:29:52.102Z,22.40
2022-07-27T00:32:55.037Z,22.40
2022-07-27T00:35:58.950Z,22.50
2022-07-27T00:39:01.854Z,22.40
2022-07-27T00:42:06.205Z,22.40
2022-07-27T00:45:10.439Z,22.40
2022-07-27T00:48:13.407Z,22.30
2022-07-27T00:51:18.180Z,22.30
2022-07-27T00:54:22.085Z,22.30
2022-07-27T00:57:28.705Z,22.20
2022-07-27T01:00:31.726Z,22.30
2022-07-27T01:03:34.688Z,22.30
2022-07-27T01:06:38.623Z,22.10
2022-07-27T01:10:00.022Z,22.10
2022-07-27T01:13:04.750Z,22.10
2022-07-27T01:16:08.829Z,22.00
2022-07-27T01:19:13.689Z,22.00
2022-07-27T01:22:18.606Z,22.00
2022-07-27T01:25:21.526Z,22.00
2022-07-27T01:28:24.557Z,22.00
2022-07-27T01:31:27.977Z,22.00
2022-07-27T01:34:33.461Z,22.10
2022-07-27T01:37:37.678Z,22.10
2022-07-27T01:40:42.090Z,22.00
2022-07-27T01:43:45.575Z,22.00
2022-07-27T01:46:48.602Z,21.90
2022-07-27T01:49:51.522Z,21.90
2022-07-27T01:52:56.033Z,21.80
2022-07-27T01:55:58.982Z,21.80
2022-07-27T01:59:02.092Z,21.70
2022-07-27T02:02:05.009Z,21.70
2022-07-27T02:05:11.770Z,21.70
2022-07-27T02:08:16.243Z,21.70
2022-07-27T02:11:36.747Z,21.60
2022-07-27T02:14:39.676Z,21.60
2022-07-27T02:17:43.121Z,21.60
2022-07-27T02:20:46.018Z,21.60
2022-07-27T02:23:50.244Z,21.40
2022-07-27T02:26:53.654Z,21.40
2022-07-27T02:29:57.952Z,21.40
2022-07-27T02:33:00.931Z,21.40
2022-07-27T02:36:04.835Z,21.40
2022-07-27T02:39:09.479Z,21.50
2022-07-27T02:42:12.713Z,21.40
2022-07-27T02:45:17.019Z,21.50
2022-07-27T02:48:19.885Z,21.50
2022-07-27T02:51:22.755Z,21.40
2022-07-27T02:54:27.755Z,21.40
2022-07-27T02:57:30.761Z,21.40
2022-07-27T03:00:34.132Z,21.50
2022-07-27T03:03:39.132Z,21.50
2022-07-27T03:06:42.329Z,21.60
2022-07-27T03:09:52.109Z,21.60
2022-07-27T03:12:55.440Z,21.50
2022-07-27T03:15:58.946Z,21.50
2022-07-27T03:19:01.851Z,21.40
2022-07-27T03:22:04.729Z,21.40
2022-07-27T03:25:10.492Z,21.40
2022-07-27T03:28:13.389Z,21.40
2022-07-27T03:31:16.507Z,21.40
2022-07-27T03:34:19.490Z,21.40
2022-07-27T03:37:22.457Z,21.40
2022-07-27T03:40:29.292Z,21.40
2022-07-27T03:43:32.310Z,21.40
2022-07-27T03:46:35.420Z,21.40
2022-07-27T03:49:38.321Z,21.40
2022-07-27T03:52:41.230Z,21.30
2022-07-27T03:55:50.063Z,21.30
2022-07-27T03:58:52.922Z,21.30
2022-07-27T04:01:55.884Z,21.30
2022-07-27T04:04:58.885Z,21.30
2022-07-27T04:08:01.822Z,21.30
2022-07-27T04:11:06.034Z,21.30
2022-07-27T04:14:11.017Z,21.20
2022-07-27T04:17:54.129Z,21.20
2022-07-27T04:20:38.585Z,21.30
2022-07-27T04:23:41.454Z,21.20
2022-07-27T04:26:45.684Z,21.20
2022-07-27T04:29:48.907Z,21.20
2022-07-27T04:32:51.981Z,21.10
2022-07-27T04:35:54.842Z,21.10
2022-07-27T04:38:57.710Z,21.20
2022-07-27T04:42:01.907Z,21.20
2022-07-27T04:45:06.132Z,21.20
2022-07-27T04:48:10.319Z,21.20
2022-07-27T04:51:15.691Z,21.10
2022-07-27T04:54:18.585Z,21.10
2022-07-27T04:57:23.299Z,21.10
2022-07-27T05:00:26.370Z,21.20
2022-07-27T05:03:29.247Z,21.20
2022-07-27T05:06:32.922Z,21.20
2022-07-27T05:09:35.781Z,21.20
2022-07-27T05:12:40.027Z,21.20
2022-07-27T05:15:54.659Z,21.20
2022-07-27T05:18:59.401Z,21.20
2022-07-27T05:22:02.357Z,21.20
2022-07-27T05:25:05.733Z,21.30
2022-07-27T05:28:12.083Z,21.30
2022-07-27T05:31:15.004Z,21.30
2022-07-27T05:34:17.916Z,21.30
2022-07-27T05:37:20.864Z,21.30
2022-07-27T05:40:23.705Z,21.30
2022-07-27T05:43:28.411Z,21.30
2022-07-27T05:46:33.231Z,21.20
2022-07-27T05:49:36.401Z,21.10
2022-07-27T05:52:39.302Z,21.20
2022-07-27T05:55:58.958Z,21.30
2022-07-27T05:59:07.213Z,21.30
2022-07-27T06:02:10.464Z,21.40
2022-07-27T06:05:16.027Z,21.40
2022-07-27T06:08:19.642Z,21.40
2022-07-27T06:11:23.132Z,21.50
2022-07-27T06:14:27.363Z,21.50
2022-07-27T06:17:30.240Z,21.40
2022-07-27T06:20:33.274Z,21.50
2022-07-27T06:23:36.381Z,21.50
2022-07-27T06:26:39.224Z,21.60
2022-07-27T06:29:43.524Z,21.60
2022-07-27T06:32:46.453Z,21.60
2022-07-27T06:35:49.766Z,21.60
2022-07-27T06:38:52.636Z,21.60
2022-07-27T06:41:58.223Z,21.70
2022-07-27T06:45:02.725Z,21.80
2022-07-27T06:48:06.294Z,21.90
2022-07-27T06:51:09.599Z,22.00
2022-07-27T06:54:12.489Z,22.10
2022-07-27T06:57:15.606Z,22.10
2022-07-27T07:00:19.927Z,22.10
2022-07-27T07:03:22.886Z,22.10
2022-07-27T07:06:26.262Z,22.10
2022-07-27T07:09:29.668Z,22.20
2022-07-27T07:12:32.524Z,22.20
2022-07-27T07:15:38.424Z,22.20
2022-07-27T07:18:41.322Z,22.30
2022-07-27T07:21:44.248Z,22.30
2022-07-27T07:24:47.118Z,22.40
2022-07-27T07:27:50.091Z,22.50
2022-07-27T07:30:55.676Z,22.50
2022-07-27T07:34:00.235Z,22.50
2022-07-27T07:37:03.217Z,22.50
2022-07-27T07:40:40.236Z,22.50
2022-07-27T07:43:30.442Z,22.60
2022-07-27T07:46:34.853Z,22.60
2022-07-27T07:49:40.056Z,22.60
2022-07-27T07:52:43.085Z,22.70
2022-07-27T07:55:45.939Z,22.60
2022-07-27T07:58:49.710Z,22.60
2022-07-27T08:01:54.122Z,22.60
2022-07-27T08:04:57.056Z,22.60
2022-07-27T08:08:00.009Z,22.80
2022-07-27T08:11:02.927Z,22.70
2022-07-27T08:14:06.070Z,22.80
2022-07-27T08:17:10.262Z,23.00
2022-07-27T08:20:14.547Z,23.00
2022-07-27T08:23:17.476Z,23.10
2022-07-27T08:26:20.466Z,23.20
2022-07-27T08:29:25.263Z,23.30
2022-07-27T08:32:52.520Z,23.20
2022-07-27T08:35:57.415Z,23.30
2022-07-27T08:39:02.008Z,23.30
2022-07-27T08:42:09.475Z,23.50
2022-07-27T08:45:16.045Z,23.70
2022-07-27T08:48:21.162Z,23.70
2022-07-27T08:51:25.904Z,23.60
2022-07-27T08:54:29.488Z,23.50
2022-07-27T08:57:32.504Z,23.60
2022-07-27T09:00:37.217Z,23.70
2022-07-27T09:03:41.488Z,23.70
2022-07-27T09:06:53.296Z,23.90
2022-07-27T09:09:57.224Z,24.00
2022-07-27T09:13:00.835Z,24.00
2022-07-27T09:16:18.503Z,24.00
2022-07-27T09:19:24.140Z,24.00
2022-07-27T09:22:49.709Z,24.00
2022-07-27T09:26:23.248Z,24.00
2022-07-27T09:29:36.302Z,24.20
2022-07-27T09:32:39.669Z,24.30
2022-07-27T09:35:46.242Z,24.30
2022-07-27T09:38:59.998Z,24.30
2022-07-27T09:42:05.338Z,24.30
2022-07-27T09:45:33.985Z,24.30
2022-07-27T09:48:37.390Z,24.40
2022-07-27T09:52:03.050Z,24.50
2022-07-27T09:55:07.594Z,24.50
2022-07-27T09:58:15.522Z,24.60
2022-07-27T10:01:21.578Z,24.70
2022-07-27T10:04:25.385Z,24.70
2022-07-27T10:07:29.984Z,24.80
2022-07-27T10:10:33.043Z,25.00
2022-07-27T10:13:36.600Z,25.00
2022-07-27T10:16:50.341Z,25.00
2022-07-27T10:19:53.812Z,25.20
2022-07-27T10:22:59.568Z,25.40
2022-07-27T10:26:20.491Z,25.50
2022-07-27T10:29:24.767Z,25.50
2022-07-27T10:32:31.117Z,25.60
2022-07-27T10:35:36.178Z,25.60
2022-07-27T10:38:48.903Z,25.60
2022-07-27T10:41:51.834Z,25.70
2022-07-27T10:45:06.557Z,25.60
2022-07-27T10:48:09.492Z,25.70
2022-07-27T10:51:13.530Z,25.70
2022-07-27T10:54:27.065Z,25.60
2022-07-27T10:57:31.724Z,25.60
2022-07-27T11:01:01.888Z,25.70
2022-07-27T11:04:10.707Z,25.70
2022-07-27T11:07:24.815Z,25.70
2022-07-27T11:10:43.721Z,25.80
2022-07-27T11:13:47.097Z,26.00
2022-07-27T11:16:55.913Z,26.10
2022-07-27T11:20:02.000Z,26.10
2022-07-27T11:26:45.294Z,26.10
2022-07-27T11:29:48.190Z,26.10
2022-07-27T11:32:51.188Z,26.20
2022-07-27T11:35:55.258Z,26.20
2022-07-27T11:38:58.124Z,26.30
2022-07-27T11:42:11.883Z,26.40
2022-07-27T11:45:29.565Z,26.30
2022-07-27T11:48:49.887Z,26.40
2022-07-27T11:51:57.809Z,26.80
2022-07-27T11:55:00.709Z,27.00
2022-07-27T11:58:05.859Z,27.10
2022-07-27T12:01:08.850Z,27.20
2022-07-27T12:04:15.485Z,27.30
2022-07-27T12:07:20.908Z,27.20
2022-07-27T12:10:24.052Z,27.20
2022-07-27T12:13:34.800Z,27.20
2022-07-27T12:16:37.778Z,27.10
2022-07-27T12:19:40.917Z,27.00
2022-07-27T12:22:45.785Z,27.00
2022-07-27T12:25:49.256Z,27.00
2022-07-27T12:29:09.825Z,27.00
2022-07-27T12:32:15.363Z,27.00
2022-07-27T12:35:25.537Z,26.90
2022-07-27T12:38:38.592Z,26.90
2022-07-27T12:41:42.274Z,26.90
2022-07-27T12:44:47.447Z,26.80
2022-07-27T12:47:50.586Z,26.80
2022-07-27T12:50:59.889Z,26.80
2022-07-27T12:54:02.773Z,26.80
2022-07-27T12:57:06.006Z,26.80
2022-07-27T13:00:13.732Z,26.90
2022-07-27T13:03:17.014Z,26.90
2022-07-27T13:06:19.934Z,26.90
2022-07-27T13:09:22.866Z,26.90
2022-07-27T13:12:25.788Z,27.00
2022-07-27T13:15:30.084Z,26.90
2022-07-27T13:18:33.051Z,26.90
2022-07-27T13:21:35.973Z,27.00
2022-07-27T13:24:38.856Z,27.20
2022-07-27T13:27:42.122Z,27.40
2022-07-27T13:30:46.401Z,27.30
2022-07-27T13:33:49.272Z,27.20
2022-07-27T13:36:52.297Z,27.30
2022-07-27T13:39:55.216Z,27.30
2022-07-27T13:42:58.163Z,27.20
2022-07-27T13:46:03.267Z,27.20
2022-07-27T13:49:06.354Z,27.20
2022-07-27T13:52:12.229Z,27.30
2022-07-27T13:55:15.789Z,27.30
2022-07-27T13:58:19.829Z,27.40
2022-07-27T14:01:24.239Z,27.40
2022-07-27T14:04:27.360Z,27.20
2022-07-27T14:07:31.656Z,27.10
2022-07-27T14:10:39.807Z,27.10
2022-07-27T14:13:42.877Z,27.10
2022-07-27T14:16:47.162Z,27.00
2022-07-27T14:19:50.131Z,27.00
2022-07-27T14:22:53.010Z,27.00
2022-07-27T14:25:57.193Z,27.00
2022-07-27T14:29:00.349Z,27.00
2022-07-27T14:32:05.599Z,27.00
2022-07-27T14:35:09.415Z,27.00
2022-07-27T14:38:12.935Z,27.00
2022-07-27T14:41:16.262Z,27.10
2022-07-27T14:44:19.224Z,27.20
2022-07-27T14:47:24.110Z,27.30
2022-07-27T14:50:27.245Z,27.30
2022-07-27T14:53:30.183Z,27.30
2022-07-27T14:56:33.189Z,27.40
2022-07-27T14:59:36.565Z,27.50
2022-07-27T15:02:41.102Z,27.40
2022-07-27T15:05:50.098Z,27.40
2022-07-27T15:08:53.921Z,27.40
2022-07-27T15:11:56.873Z,27.40
2022-07-27T15:15:00.374Z,27.40
2022-07-27T15:18:06.123Z,27.30
2022-07-27T15:21:12.734Z,27.30
2022-07-27T15:24:16.520Z,27.30
2022-07-27T15:27:19.521Z,27.30
2022-07-27T15:30:22.494Z,27.20
2022-07-27T15:33:26.875Z,27.20
2022-07-27T15:36:33.198Z,27.10
2022-07-27T15:39:38.478Z,27.10
2022-07-27T15:42:41.419Z,27.10
2022-07-27T15:45:47.170Z,27.10
2022-07-27T15:48:51.590Z,27.20
2022-07-27T15:51:54.772Z,27.20
2022-07-27T15:54:57.644Z,27.20
2022-07-27T15:58:00.736Z,27.20
2022-07-27T16:01:03.956Z,27.20
2022-07-27T16:04:09.302Z,27.20
2022-07-27T16:07:12.247Z,27.20
2022-07-27T16:10:15.141Z,27.10
2022-07-27T16:13:18.713Z,27.10
2022-07-27T16:16:31.013Z,27.00
2022-07-27T16:19:35.365Z,27.10
2022-07-27T16:22:39.477Z,27.10
2022-07-27T16:26:02.509Z,27.10
2022-07-27T16:29:05.349Z,27.10
2022-07-27T16:32:08.304Z,27.10
2022-07-27T16:35:12.993Z,27.00
2022-07-27T16:38:15.914Z,27.00
2022-07-27T16:41:19.589Z,27.00
2022-07-27T16:44:22.680Z,27.00
2022-07-27T16:47:25.866Z,27.00
2022-07-27T16:50:30.099Z,26.90
2022-07-27T16:53:34.076Z,27.00
2022-07-27T16:56:37.723Z,26.90
2022-07-27T16:59:41.606Z,26.80
2022-07-27T17:02:44.655Z,26.80
2022-07-27T17:05:49.112Z,26.80
2022-07-27T17:08:51.986Z,26.70
2022-07-27T17:11:54.976Z,26.70
2022-07-27T17:14:58.025Z,26.80
2022-07-27T17:18:01.654Z,26.70
2022-07-27T17:21:07.136Z,26.60
2022-07-27T17:24:10.944Z,26.70
2022-07-27T17:27:14.076Z,26.60
2022-07-27T17:30:17.072Z,26.60
2022-07-27T17:33:19.970Z,26.60
2022-07-27T17:36:25.245Z,26.60
2022-07-27T17:39:28.498Z,26.50
2022-07-27T17:42:31.529Z,26.50
2022-07-27T17:45:34.441Z,26.40
2022-07-27T17:48:38.638Z,26.40
2022-07-27T17:51:42.882Z,26.40
2022-07-27T17:54:47.645Z,26.40
2022-07-27T17:57:51.001Z,26.40
2022-07-27T18:00:53.923Z,26.40
2022-07-27T18:03:56.907Z,26.40
2022-07-27T18:07:01.335Z,26.30
2022-07-27T18:10:05.053Z,26.30
2022-07-27T18:13:08.462Z,26.30
2022-07-27T18:16:13.827Z,26.30
2022-07-27T18:19:17.102Z,26.30
2022-07-27T18:22:21.534Z,26.20
2022-07-27T18:25:24.561Z,26.20
2022-07-27T18:28:27.500Z,26.10
2022-07-27T18:31:30.467Z,26.10
2022-07-27T18:34:33.526Z,26.10
2022-07-27T18:37:37.745Z,26.00
2022-07-27T18:40:43.032Z,25.90
2022-07-27T18:43:51.113Z,25.80
2022-07-27T18:46:54.041Z,25.80
2022-07-27T18:49:56.961Z,25.70
2022-07-27T18:53:01.246Z,25.60
2022-07-27T18:56:04.227Z,25.60
2022-07-27T18:59:07.238Z,25.50
2022-07-27T19:02:10.232Z,25.50
2022-07-27T19:05:18.139Z,25.50
2022-07-27T19:08:34.310Z,25.50
2022-07-27T19:11:37.290Z,25.50
2022-07-27T19:14:40.223Z,25.40
2022-07-27T19:17:43.503Z,25.40
2022-07-27T19:20:46.478Z,25.40
2022-07-27T19:23:50.912Z,25.30
2022-07-27T19:26:53.989Z,25.30
2022-07-27T19:29:56.972Z,25.20
2022-07-27T19:33:00.327Z,25.20
2022-07-27T19:36:03.314Z,25.20
2022-07-27T19:39:08.251Z,25.10
2022-07-27T19:42:14.564Z,25.10
2022-07-27T19:45:17.545Z,25.00
2022-07-27T19:48:21.522Z,25.00
2022-07-27T19:51:24.740Z,25.00
2022-07-27T19:54:28.984Z,24.80
2022-07-27T19:57:31.872Z,24.90
2022-07-27T20:00:34.820Z,24.90
2022-07-27T20:03:48.684Z,24.90
2022-07-27T20:06:57.365Z,24.90
2022-07-27T20:10:01.629Z,24.90
2022-07-27T20:13:05.011Z,24.90
2022-07-27T20:16:07.998Z,24.80
2022-07-27T20:19:11.197Z,24.80
2022-07-27T20:22:14.312Z,24.70
2022-07-27T20:25:18.691Z,24.60
2022-07-27T20:28:21.714Z,24.60
2022-07-27T20:31:24.604Z,24.60
2022-07-27T20:34:27.589Z,24.60
2022-07-27T20:37:30.490Z,24.60
2022-07-27T20:40:34.775Z,24.60
2022-07-27T20:43:37.922Z,24.50
2022-07-27T20:46:40.792Z,24.50
2022-07-27T20:49:43.693Z,24.50
2022-07-27T20:52:46.581Z,24.40
2022-07-27T20:55:50.827Z,24.40
2022-07-27T20:58:53.729Z,24.40
2022-07-27T21:01:56.673Z,24.20
2022-07-27T21:04:59.593Z,24.30
2022-07-27T21:08:03.101Z,24.20
2022-07-27T21:11:07.400Z,24.10
2022-07-27T21:14:10.523Z,24.10
2022-07-27T21:17:13.454Z,24.00
2022-07-27T21:20:16.414Z,24.00
2022-07-27T21:23:37.027Z,24.00
2022-07-27T21:26:41.672Z,24.00
2022-07-27T21:29:45.236Z,23.90
2022-07-27T21:32:48.204Z,23.90
2022-07-27T21:35:51.132Z,23.90
2022-07-27T21:38:54.012Z,23.80
2022-07-27T21:42:01.855Z,23.70
2022-07-27T21:45:07.192Z,23.70
2022-07-27T21:48:10.073Z,23.70
2022-07-27T21:51:14.672Z,23.70
2022-07-27T21:54:17.525Z,23.60
2022-07-27T21:57:21.768Z,23.60
2022-07-27T22:00:29.330Z,23.60
2022-07-27T22:03:32.369Z,23.50
2022-07-27T22:06:35.845Z,23.40
2022-07-27T22:09:42.382Z,23.40
2022-07-27T22:12:48.496Z,23.40
2022-07-27T22:15:51.380Z,23.40
2022-07-27T22:18:54.574Z,23.30
2022-07-27T22:21:57.850Z,23.30
2022-07-27T22:25:00.746Z,23.30
2022-07-27T22:28:05.676Z,23.20
2022-07-27T22:31:21.436Z,23.10
2022-07-27T22:34:25.883Z,23.00
2022-07-27T22:37:28.810Z,23.00
2022-07-27T22:40:31.673Z,23.00
2022-07-27T22:43:35.977Z,23.00
2022-07-27T22:46:38.925Z,22.90
2022-07-27T22:49:41.762Z,22.90
2022-07-27T22:52:44.634Z,22.90
2022-07-27T22:55:47.517Z,22.80
2022-07-27T22:58:52.226Z,22.80
2022-07-27T23:01:55.150Z,22.70
2022-07-27T23:04:58.094Z,22.60
2022-07-27T23:08:00.979Z,22.60
2022-07-27T23:11:03.858Z,22.70
2022-07-27T23:14:08.568Z,22.60
2022-07-27T23:17:11.466Z,22.60
2022-07-27T23:20:14.309Z,22.60
2022-07-27T23:23:17.165Z,22.60
2022-07-27T23:26:20.018Z,22.50
2022-07-27T23:29:24.214Z,22.40
2022-07-27T23:32:27.108Z,22.40
2022-07-27T23:35:30.193Z,22.40
2022-07-27T23:38:33.109Z,22.40
2022-07-27T23:41:35.966Z,22.30
2022-07-27T23:44:40.163Z,22.30
2022-07-27T23:47:44.117Z,22.30
2022-07-27T23:50:47.248Z,22.30
2022-07-27T23:53:50.459Z,22.30
2022-07-27T23:56:53.309Z,22.20
2022-07-27T23:59:57.593Z,22.20
